sensor_id;sensor_type;location;lat;lon;timestamp;pressure;altitude;pressure_sealevel;temperature;humidity
5296;BME280;2670;42.720;23.336;2023-04-27T00:00:40;-22661.88;;;7.56;78.16
5296;BME280;2670;42.720;23.336;2023-04-27T00:03:07;-22658.91;;;7.45;78.36
5296;BME280;2670;42.720;23.336;2023-04-27T00:05:34;-22657.44;;;7.40;78.04
5296;BME280;2670;42.720;23.336;2023-04-27T00:08:02;-22656.69;;;7.38;78.33
5296;BME280;2670;42.720;23.336;2023-04-27T00:10:29;-22655.19;;;7.33;78.88
5296;BME280;2670;42.720;23.336;2023-04-27T00:12:57;-22655.94;;;7.35;79.47
5296;BME280;2670;42.720;23.336;2023-04-27T00:15:23;-22655.66;;;7.34;78.74
5296;BME280;2670;42.720;23.336;2023-04-27T00:17:50;-22655.78;;;7.35;78.58
5296;BME280;2670;42.720;23.336;2023-04-27T00:20:17;-22653.41;;;7.27;78.81
5296;BME280;2670;42.720;23.336;2023-04-27T00:22:45;-22651.19;;;7.19;78.97
5296;BME280;2670;42.720;23.336;2023-04-27T00:25:13;-22647.63;;;7.07;79.50
5296;BME280;2670;42.720;23.336;2023-04-27T00:27:40;-22650.00;;;7.15;79.61
5296;BME280;2670;42.720;23.336;2023-04-27T00:30:07;-22646.13;;;7.02;80.20
5296;BME280;2670;42.720;23.336;2023-04-27T00:32:34;-22646.88;;;7.04;79.83
5296;BME280;2670;42.720;23.336;2023-04-27T00:35:01;-22647.63;;;7.07;79.32
5296;BME280;2670;42.720;23.336;2023-04-27T00:37:28;-22641.97;;;6.87;80.79
5296;BME280;2670;42.720;23.336;2023-04-27T00:39:54;-22641.66;;;6.86;80.67
5296;BME280;2670;42.720;23.336;2023-04-27T00:42:22;-22638.84;;;6.77;80.79
5296;BME280;2670;42.720;23.336;2023-04-27T00:44:49;-22637.66;;;6.72;81.08
5296;BME280;2670;42.720;23.336;2023-04-27T00:47:16;-22638.53;;;6.76;81.96
5296;BME280;2670;42.720;23.336;2023-04-27T00:49:43;-22632.28;;;6.54;81.65
5296;BME280;2670;42.720;23.336;2023-04-27T00:52:10;-22637.06;;;6.70;81.84
5296;BME280;2670;42.720;23.336;2023-04-27T00:54:37;-22638.41;;;6.75;81.56
5296;BME280;2670;42.720;23.336;2023-04-27T00:57:04;-22634.22;;;6.61;81.70
5296;BME280;2670;42.720;23.336;2023-04-27T00:59:32;-22633.78;;;6.59;81.86
5296;BME280;2670;42.720;23.336;2023-04-27T01:01:58;-22636.16;;;6.67;81.74
5296;BME280;2670;42.720;23.336;2023-04-27T01:04:25;-22633.50;;;6.58;81.67
5296;BME280;2670;42.720;23.336;2023-04-27T01:06:53;-22632.59;;;6.55;82.12
5296;BME280;2670;42.720;23.336;2023-04-27T01:09:20;-22632.88;;;6.56;81.15
5296;BME280;2670;42.720;23.336;2023-04-27T01:11:46;-22631.56;;;6.52;81.88
5296;BME280;2670;42.720;23.336;2023-04-27T01:14:13;-22627.97;;;6.39;81.43
5296;BME280;2670;42.720;23.336;2023-04-27T01:16:42;-22632.16;;;6.54;81.89
5296;BME280;2670;42.720;23.336;2023-04-27T01:19:10;-22630.34;;;6.47;82.11
5296;BME280;2670;42.720;23.336;2023-04-27T01:21:37;-22631.09;;;6.50;81.77
5296;BME280;2670;42.720;23.336;2023-04-27T01:24:07;-22630.34;;;6.47;82.03
5296;BME280;2670;42.720;23.336;2023-04-27T01:26:33;-22630.66;;;6.48;82.06
5296;BME280;2670;42.720;23.336;2023-04-27T01:29:00;-22627.09;;;6.36;82.64
5296;BME280;2670;42.720;23.336;2023-04-27T01:31:27;-22627.53;;;6.38;82.78
5296;BME280;2670;42.720;23.336;2023-04-27T01:33:54;-22623.22;;;6.23;82.55
5296;BME280;2670;42.720;23.336;2023-04-27T01:36:20;-22624.25;;;6.27;82.69
5296;BME280;2670;42.720;23.336;2023-04-27T01:38:47;-22624.09;;;6.26;82.02
5296;BME280;2670;42.720;23.336;2023-04-27T01:41:15;-22625.91;;;6.32;83.13
5296;BME280;2670;42.720;23.336;2023-04-27T01:43:42;-22618.91;;;6.08;83.67
5296;BME280;2670;42.720;23.336;2023-04-27T01:46:11;-22618.91;;;6.08;83.52
5296;BME280;2670;42.720;23.336;2023-04-27T01:48:38;-22622.31;;;6.20;83.85
5296;BME280;2670;42.720;23.336;2023-04-27T01:51:05;-22620.69;;;6.14;83.18
5296;BME280;2670;42.720;23.336;2023-04-27T01:53:32;-22617.84;;;6.05;83.25
5296;BME280;2670;42.720;23.336;2023-04-27T01:55:59;-22619.66;;;6.11;83.70
5296;BME280;2670;42.720;23.336;2023-04-27T01:58:27;-22617.84;;;6.05;83.16
5296;BME280;2670;42.720;23.336;2023-04-27T02:00:54;-22617.84;;;6.05;84.17
5296;BME280;2670;42.720;23.336;2023-04-27T02:03:21;-22621.44;;;6.17;83.48
5296;BME280;2670;42.720;23.336;2023-04-27T02:05:48;-22619.94;;;6.12;82.98
5296;BME280;2670;42.720;23.336;2023-04-27T02:08:14;-22617.13;;;6.02;83.06
5296;BME280;2670;42.720;23.336;2023-04-27T02:10:41;-22621.44;;;6.17;82.26
5296;BME280;2670;42.720;23.336;2023-04-27T02:13:08;-22620.53;;;6.14;83.74
5296;BME280;2670;42.720;23.336;2023-04-27T02:15:36;-22621.44;;;6.17;83.66
5296;BME280;2670;42.720;23.336;2023-04-27T02:18:03;-22623.97;;;6.26;82.96
5296;BME280;2670;42.720;23.336;2023-04-27T02:20:30;-22622.78;;;6.21;82.96
5296;BME280;2670;42.720;23.336;2023-04-27T02:22:58;-22621.72;;;6.18;82.46
5296;BME280;2670;42.720;23.336;2023-04-27T02:25:25;-22613.53;;;5.90;83.82
5296;BME280;2670;42.720;23.336;2023-04-27T02:27:52;-22612.50;;;5.86;83.66
5296;BME280;2670;42.720;23.336;2023-04-27T02:30:18;-22615.19;;;5.95;83.71
5296;BME280;2670;42.720;23.336;2023-04-27T02:32:47;-22619.78;;;6.11;82.59
5296;BME280;2670;42.720;23.336;2023-04-27T02:35:13;-22615.31;;;5.96;83.37
5296;BME280;2670;42.720;23.336;2023-04-27T02:37:40;-22615.19;;;5.95;83.21
5296;BME280;2670;42.720;23.336;2023-04-27T02:40:08;-22615.94;;;5.98;83.19
5296;BME280;2670;42.720;23.336;2023-04-27T02:42:35;-22609.50;;;5.76;83.10
5296;BME280;2670;42.720;23.336;2023-04-27T02:45:04;-22614.59;;;5.93;82.60
5296;BME280;2670;42.720;23.336;2023-04-27T02:47:31;-22613.38;;;5.89;83.53
5296;BME280;2670;42.720;23.336;2023-04-27T02:49:59;-22610.56;;;5.80;83.10
5296;BME280;2670;42.720;23.336;2023-04-27T02:52:26;-22607.44;;;5.69;83.21
5296;BME280;2670;42.720;23.336;2023-04-27T02:54:53;-22607.88;;;5.70;83.13
5296;BME280;2670;42.720;23.336;2023-04-27T02:57:19;-22606.97;;;5.67;82.75
5296;BME280;2670;42.720;23.336;2023-04-27T02:59:46;-22607.44;;;5.69;83.70
5296;BME280;2670;42.720;23.336;2023-04-27T03:02:13;-22605.78;;;5.63;84.50
5296;BME280;2670;42.720;23.336;2023-04-27T03:04:40;-22607.44;;;5.69;84.00
5296;BME280;2670;42.720;23.336;2023-04-27T03:07:09;-22604.00;;;5.57;84.13
5296;BME280;2670;42.720;23.336;2023-04-27T03:09:36;-22603.56;;;5.56;84.42
5296;BME280;2670;42.720;23.336;2023-04-27T03:12:03;-22600.88;;;5.46;84.39
5296;BME280;2670;42.720;23.336;2023-04-27T03:14:30;-22603.72;;;5.56;84.03
5296;BME280;2670;42.720;23.336;2023-04-27T03:16:57;-22600.88;;;5.46;84.12
5296;BME280;2670;42.720;23.336;2023-04-27T03:19:23;-22603.25;;;5.55;83.82
5296;BME280;2670;42.720;23.336;2023-04-27T03:21:50;-22603.56;;;5.56;84.02
5296;BME280;2670;42.720;23.336;2023-04-27T03:24:18;-22604.91;;;5.60;85.04
5296;BME280;2670;42.720;23.336;2023-04-27T03:26:46;-22603.13;;;5.54;85.11
5296;BME280;2670;42.720;23.336;2023-04-27T03:29:12;-22600.88;;;5.46;84.83
5296;BME280;2670;42.720;23.336;2023-04-27T03:31:39;-22597.00;;;5.33;84.93
5296;BME280;2670;42.720;23.336;2023-04-27T03:34:06;-22603.84;;;5.57;83.47
5296;BME280;2670;42.720;23.336;2023-04-27T03:36:33;-22599.69;;;5.42;85.03
5296;BME280;2670;42.720;23.336;2023-04-27T03:39:00;-22595.22;;;5.27;85.12
5296;BME280;2670;42.720;23.336;2023-04-27T03:41:28;-22596.41;;;5.31;85.30
5296;BME280;2670;42.720;23.336;2023-04-27T03:43:55;-22594.19;;;5.23;85.17
5296;BME280;2670;42.720;23.336;2023-04-27T03:46:22;-22594.78;;;5.25;84.60
5296;BME280;2670;42.720;23.336;2023-04-27T03:48:48;-22591.66;;;5.15;85.61
5296;BME280;2670;42.720;23.336;2023-04-27T03:51:15;-22595.97;;;5.30;85.21
5296;BME280;2670;42.720;23.336;2023-04-27T03:53:42;-22595.97;;;5.30;85.61
5296;BME280;2670;42.720;23.336;2023-04-27T03:56:09;-22600.28;;;5.44;84.39
5296;BME280;2670;42.720;23.336;2023-04-27T03:58:37;-22592.38;;;5.17;85.41
5296;BME280;2670;42.720;23.336;2023-04-27T04:01:04;-22593.56;;;5.21;85.75
5296;BME280;2670;42.720;23.336;2023-04-27T04:03:30;-22593.72;;;5.22;85.48
5296;BME280;2670;42.720;23.336;2023-04-27T04:05:57;-22597.31;;;5.34;84.55
5296;BME280;2670;42.720;23.336;2023-04-27T04:08:24;-22596.09;;;5.30;85.04
5296;BME280;2670;42.720;23.336;2023-04-27T04:10:51;-22591.66;;;5.15;85.05
5296;BME280;2670;42.720;23.336;2023-04-27T04:13:17;-22592.09;;;5.16;84.70
5296;BME280;2670;42.720;23.336;2023-04-27T04:15:45;-22592.09;;;5.16;85.00
5296;BME280;2670;42.720;23.336;2023-04-27T04:18:12;-22592.53;;;5.18;84.93
5296;BME280;2670;42.720;23.336;2023-04-27T04:20:39;-22593.13;;;5.20;85.09
5296;BME280;2670;42.720;23.336;2023-04-27T04:23:06;-22593.56;;;5.21;85.14
5296;BME280;2670;42.720;23.336;2023-04-27T04:25:32;-22593.13;;;5.20;85.07
5296;BME280;2670;42.720;23.336;2023-04-27T04:27:59;-22592.09;;;5.16;86.22
5296;BME280;2670;42.720;23.336;2023-04-27T04:30:26;-22594.47;;;5.24;85.66
5296;BME280;2670;42.720;23.336;2023-04-27T04:32:54;-22595.06;;;5.27;85.41
5296;BME280;2670;42.720;23.336;2023-04-27T04:35:21;-22593.13;;;5.20;85.66
5296;BME280;2670;42.720;23.336;2023-04-27T04:37:47;-22592.53;;;5.18;85.21
5296;BME280;2670;42.720;23.336;2023-04-27T04:40:14;-22596.56;;;5.32;84.86
5296;BME280;2670;42.720;23.336;2023-04-27T04:42:41;-22596.72;;;5.32;84.51
5296;BME280;2670;42.720;23.336;2023-04-27T04:45:08;-22592.69;;;5.18;85.33
5296;BME280;2670;42.720;23.336;2023-04-27T04:47:35;-22592.53;;;5.18;84.58
5296;BME280;2670;42.720;23.336;2023-04-27T04:50:06;-22592.69;;;5.18;85.14
5296;BME280;2670;42.720;23.336;2023-04-27T04:52:33;-22596.72;;;5.32;85.57
5296;BME280;2670;42.720;23.336;2023-04-27T04:55:01;-22599.25;;;5.41;84.52
5296;BME280;2670;42.720;23.336;2023-04-27T04:57:28;-22599.69;;;5.42;83.79
5296;BME280;2670;42.720;23.336;2023-04-27T04:59:55;-22595.50;;;5.28;85.62
5296;BME280;2670;42.720;23.336;2023-04-27T05:02:22;-22599.69;;;5.42;84.62
5296;BME280;2670;42.720;23.336;2023-04-27T05:04:49;-22599.53;;;5.42;85.03
5296;BME280;2670;42.720;23.336;2023-04-27T05:07:18;-22600.59;;;5.45;84.89
5296;BME280;2670;42.720;23.336;2023-04-27T05:09:45;-22603.41;;;5.55;85.34
5296;BME280;2670;42.720;23.336;2023-04-27T05:12:11;-22605.34;;;5.62;84.92
5296;BME280;2670;42.720;23.336;2023-04-27T05:14:38;-22608.19;;;5.71;84.50
5296;BME280;2670;42.720;23.336;2023-04-27T05:17:05;-22612.03;;;5.85;84.37
5296;BME280;2670;42.720;23.336;2023-04-27T05:19:32;-22611.00;;;5.81;83.13
5296;BME280;2670;42.720;23.336;2023-04-27T05:21:58;-22613.53;;;5.90;82.72
5296;BME280;2670;42.720;23.336;2023-04-27T05:24:26;-22613.25;;;5.89;82.82
5296;BME280;2670;42.720;23.336;2023-04-27T05:26:53;-22614.44;;;5.93;82.60
5296;BME280;2670;42.720;23.336;2023-04-27T05:29:20;-22621.44;;;6.17;81.56
5296;BME280;2670;42.720;23.336;2023-04-27T05:31:47;-22624.25;;;6.27;81.55
5296;BME280;2670;42.720;23.336;2023-04-27T05:34:14;-22624.56;;;6.28;80.27
5296;BME280;2670;42.720;23.336;2023-04-27T05:36:40;-22626.50;;;6.34;80.28
5296;BME280;2670;42.720;23.336;2023-04-27T05:39:07;-22627.69;;;6.38;80.75
5296;BME280;2670;42.720;23.336;2023-04-27T05:41:35;-22627.09;;;6.36;81.20
5296;BME280;2670;42.720;23.336;2023-04-27T05:44:02;-22630.97;;;6.49;79.97
5296;BME280;2670;42.720;23.336;2023-04-27T05:46:28;-22624.72;;;6.28;81.00
5296;BME280;2670;42.720;23.336;2023-04-27T05:48:55;-22629.63;;;6.45;79.47
5296;BME280;2670;42.720;23.336;2023-04-27T05:51:22;-22632.59;;;6.55;80.50
5296;BME280;2670;42.720;23.336;2023-04-27T05:53:49;-22640.19;;;6.81;78.68
5296;BME280;2670;42.720;23.336;2023-04-27T05:56:18;-22641.53;;;6.86;78.51
5296;BME280;2670;42.720;23.336;2023-04-27T05:58:46;-22642.56;;;6.89;78.58
5296;BME280;2670;42.720;23.336;2023-04-27T06:01:12;-22647.47;;;7.06;77.96
5296;BME280;2670;42.720;23.336;2023-04-27T06:03:39;-22650.16;;;7.15;77.85
5296;BME280;2670;42.720;23.336;2023-04-27T06:06:06;-22652.53;;;7.23;77.34
5296;BME280;2670;42.720;23.336;2023-04-27T06:08:33;-22655.78;;;7.35;77.63
5296;BME280;2670;42.720;23.336;2023-04-27T06:11:01;-22658.91;;;7.45;76.10
5296;BME280;2670;42.720;23.336;2023-04-27T06:13:30;-22657.56;;;7.41;76.13
5296;BME280;2670;42.720;23.336;2023-04-27T06:15:58;-22660.25;;;7.50;76.29
5296;BME280;2670;42.720;23.336;2023-04-27T06:18:25;-22660.69;;;7.52;77.73
5296;BME280;2670;42.720;23.336;2023-04-27T06:20:57;-22661.59;;;7.55;76.82
5296;BME280;2670;42.720;23.336;2023-04-27T06:23:24;-22663.22;;;7.60;76.37
5296;BME280;2670;42.720;23.336;2023-04-27T06:25:51;-22660.25;;;7.50;77.65
5296;BME280;2670;42.720;23.336;2023-04-27T06:28:17;-22667.69;;;7.76;76.41
5296;BME280;2670;42.720;23.336;2023-04-27T06:30:44;-22669.31;;;7.81;75.76
5296;BME280;2670;42.720;23.336;2023-04-27T06:33:12;-22671.53;;;7.89;74.81
5296;BME280;2670;42.720;23.336;2023-04-27T06:35:39;-22672.88;;;7.93;74.60
5296;BME280;2670;42.720;23.336;2023-04-27T06:38:06;-22670.34;;;7.85;74.86
5296;BME280;2670;42.720;23.336;2023-04-27T06:40:34;-22673.91;;;7.97;74.27
5296;BME280;2670;42.720;23.336;2023-04-27T06:43:01;-22676.75;;;8.07;73.12
5296;BME280;2670;42.720;23.336;2023-04-27T06:45:28;-22682.84;;;8.28;72.16
5296;BME280;2670;42.720;23.336;2023-04-27T06:47:54;-22683.13;;;8.29;72.24
5296;BME280;2670;42.720;23.336;2023-04-27T06:50:23;-22691.16;;;8.56;71.52
5296;BME280;2670;42.720;23.336;2023-04-27T06:52:49;-22691.31;;;8.57;71.67
5296;BME280;2670;42.720;23.336;2023-04-27T06:55:16;-22692.03;;;8.59;71.92
5296;BME280;2670;42.720;23.336;2023-04-27T06:57:43;-22699.75;;;8.86;71.24
5296;BME280;2670;42.720;23.336;2023-04-27T07:00:11;-22699.47;;;8.85;71.25
5296;BME280;2670;42.720;23.336;2023-04-27T07:02:38;-22701.84;;;8.93;71.23
5296;BME280;2670;42.720;23.336;2023-04-27T07:05:05;-22700.06;;;8.87;70.79
5296;BME280;2670;42.720;23.336;2023-04-27T07:07:33;-22700.66;;;8.89;70.32
5296;BME280;2670;42.720;23.336;2023-04-27T07:10:00;-22700.34;;;8.88;70.52
5296;BME280;2670;42.720;23.336;2023-04-27T07:12:26;-22702.00;;;8.93;70.26
5296;BME280;2670;42.720;23.336;2023-04-27T07:14:53;-22702.59;;;8.95;70.55
5296;BME280;2670;42.720;23.336;2023-04-27T07:17:20;-22705.25;;;9.05;70.34
5296;BME280;2670;42.720;23.336;2023-04-27T07:19:46;-22710.44;;;9.22;70.55
5296;BME280;2670;42.720;23.336;2023-04-27T07:22:13;-22716.53;;;9.43;69.17
5296;BME280;2670;42.720;23.336;2023-04-27T07:24:41;-22716.22;;;9.42;69.38
5296;BME280;2670;42.720;23.336;2023-04-27T07:27:08;-22713.84;;;9.34;69.38
5296;BME280;2670;42.720;23.336;2023-04-27T07:29:35;-22717.13;;;9.45;68.11
5296;BME280;2670;42.720;23.336;2023-04-27T07:32:04;-22719.50;;;9.54;68.88
5296;BME280;2670;42.720;23.336;2023-04-27T07:34:31;-22722.75;;;9.65;67.38
5296;BME280;2670;42.720;23.336;2023-04-27T07:36:58;-22722.75;;;9.65;67.66
5296;BME280;2670;42.720;23.336;2023-04-27T07:39:24;-22721.88;;;9.62;66.76
5296;BME280;2670;42.720;23.336;2023-04-27T07:41:53;-22721.56;;;9.61;66.15
5296;BME280;2670;42.720;23.336;2023-04-27T07:44:19;-22720.53;;;9.57;67.46
5296;BME280;2670;42.720;23.336;2023-04-27T07:46:46;-22724.09;;;9.69;67.69
5296;BME280;2670;42.720;23.336;2023-04-27T07:49:14;-22728.25;;;9.84;68.39
5296;BME280;2670;42.720;23.336;2023-04-27T07:51:41;-22737.28;;;10.15;67.38
5296;BME280;2670;42.720;23.336;2023-04-27T07:54:08;-22740.09;;;10.25;65.20
5296;BME280;2670;42.720;23.336;2023-04-27T07:56:34;-22735.66;;;10.09;65.68
5296;BME280;2670;42.720;23.336;2023-04-27T07:59:02;-22740.25;;;10.25;64.46
5296;BME280;2670;42.720;23.336;2023-04-27T08:01:29;-22739.81;;;10.23;65.41
5296;BME280;2670;42.720;23.336;2023-04-27T08:03:56;-22743.38;;;10.36;66.29
5296;BME280;2670;42.720;23.336;2023-04-27T08:06:23;-22747.38;;;10.50;66.08
5296;BME280;2670;42.720;23.336;2023-04-27T08:08:49;-22744.69;;;10.40;66.01
5296;BME280;2670;42.720;23.336;2023-04-27T08:11:17;-22753.28;;;10.70;64.02
5296;BME280;2670;42.720;23.336;2023-04-27T08:13:43;-22754.19;;;10.73;64.49
5296;BME280;2670;42.720;23.336;2023-04-27T08:16:12;-22752.41;;;10.67;64.27
5296;BME280;2670;42.720;23.336;2023-04-27T08:18:38;-22750.47;;;10.60;65.34
5296;BME280;2670;42.720;23.336;2023-04-27T08:21:05;-22753.59;;;10.71;64.99
5296;BME280;2670;42.720;23.336;2023-04-27T08:23:32;-22754.63;;;10.75;64.55
5296;BME280;2670;42.720;23.336;2023-04-27T08:25:58;-22761.44;;;10.98;63.17
5296;BME280;2670;42.720;23.336;2023-04-27T08:28:25;-22759.97;;;10.93;63.67
5296;BME280;2670;42.720;23.336;2023-04-27T08:30:52;-22765.44;;;11.12;63.02
5296;BME280;2670;42.720;23.336;2023-04-27T08:33:20;-22765.00;;;11.10;63.44
5296;BME280;2670;42.720;23.336;2023-04-27T08:35:47;-22766.63;;;11.16;62.75
5296;BME280;2670;42.720;23.336;2023-04-27T08:38:13;-22766.16;;;11.14;63.24
5296;BME280;2670;42.720;23.336;2023-04-27T08:40:43;-22766.03;;;11.14;63.58
5296;BME280;2670;42.720;23.336;2023-04-27T08:43:10;-22771.34;;;11.32;62.97
5296;BME280;2670;42.720;23.336;2023-04-27T08:45:38;-22772.84;;;11.37;63.42
5296;BME280;2670;42.720;23.336;2023-04-27T08:48:12;-22775.06;;;11.45;62.19
5296;BME280;2670;42.720;23.336;2023-04-27T08:50:42;-22774.59;;;11.43;62.53
5296;BME280;2670;42.720;23.336;2023-04-27T08:53:15;-22774.16;;;11.42;62.07
5296;BME280;2670;42.720;23.336;2023-04-27T08:55:42;-22773.88;;;11.41;62.16
5296;BME280;2670;42.720;23.336;2023-04-27T08:58:09;-22770.31;;;11.29;63.21
5296;BME280;2670;42.720;23.336;2023-04-27T09:00:39;-22767.66;;;11.19;63.55
5296;BME280;2670;42.720;23.336;2023-04-27T09:03:07;-22765.00;;;11.10;63.50
5296;BME280;2670;42.720;23.336;2023-04-27T09:05:34;-22776.53;;;11.50;62.16
5296;BME280;2670;42.720;23.336;2023-04-27T09:08:03;-22784.06;;;11.76;62.24
5296;BME280;2670;42.720;23.336;2023-04-27T09:10:43;-22785.84;;;11.82;61.95
5296;BME280;2670;42.720;23.336;2023-04-27T09:13:10;-22789.25;;;11.94;61.31
5296;BME280;2670;42.720;23.336;2023-04-27T09:15:44;-22787.19;;;11.87;61.25
5296;BME280;2670;42.720;23.336;2023-04-27T09:18:14;-22780.69;;;11.64;61.24
5296;BME280;2670;42.720;23.336;2023-04-27T09:20:42;-22780.53;;;11.64;61.57
5296;BME280;2670;42.720;23.336;2023-04-27T09:23:11;-22779.94;;;11.62;61.38
5296;BME280;2670;42.720;23.336;2023-04-27T09:25:38;-22786.00;;;11.83;60.89
5296;BME280;2670;42.720;23.336;2023-04-27T09:28:07;-22794.28;;;12.11;63.10
5296;BME280;2670;42.720;23.336;2023-04-27T09:30:34;-22795.03;;;12.14;61.11
5296;BME280;2670;42.720;23.336;2023-04-27T09:33:02;-22793.09;;;12.07;60.34
5296;BME280;2670;42.720;23.336;2023-04-27T09:35:30;-22793.25;;;12.08;62.00
5296;BME280;2670;42.720;23.336;2023-04-27T09:37:59;-22790.16;;;11.97;59.90
5296;BME280;2670;42.720;23.336;2023-04-27T09:40:28;-22781.13;;;11.66;61.41
5296;BME280;2670;42.720;23.336;2023-04-27T09:42:57;-22777.41;;;11.53;60.38
5296;BME280;2670;42.720;23.336;2023-04-27T09:45:25;-22775.19;;;11.45;60.63
5296;BME280;2670;42.720;23.336;2023-04-27T09:47:52;-22775.50;;;11.46;61.66
5296;BME280;2670;42.720;23.336;2023-04-27T09:50:19;-22779.94;;;11.62;62.26
5296;BME280;2670;42.720;23.336;2023-04-27T09:52:46;-22781.13;;;11.66;60.19
5296;BME280;2670;42.720;23.336;2023-04-27T09:55:27;-22779.34;;;11.60;60.57
5296;BME280;2670;42.720;23.336;2023-04-27T09:58:08;-22778.75;;;11.58;60.06
5296;BME280;2670;42.720;23.336;2023-04-27T10:00:47;-22775.34;;;11.46;61.37
5296;BME280;2670;42.720;23.336;2023-04-27T10:03:24;-22778.31;;;11.56;60.10
5296;BME280;2670;42.720;23.336;2023-04-27T10:09:09;-22783.78;;;11.75;59.87
5296;BME280;2670;42.720;23.336;2023-04-27T10:11:37;-22784.22;;;11.77;59.36
5296;BME280;2670;42.720;23.336;2023-04-27T10:14:14;-22781.56;;;11.67;60.45
5296;BME280;2670;42.720;23.336;2023-04-27T10:16:46;-22790.28;;;11.98;59.31
5296;BME280;2670;42.720;23.336;2023-04-27T10:19:13;-22790.88;;;12.00;59.52
5296;BME280;2670;42.720;23.336;2023-04-27T10:21:51;-22787.63;;;11.88;59.35
5296;BME280;2670;42.720;23.336;2023-04-27T10:24:30;-22792.38;;;12.05;58.07
5296;BME280;2670;42.720;23.336;2023-04-27T10:27:00;-22798.72;;;12.27;57.60
5296;BME280;2670;42.720;23.336;2023-04-27T10:29:36;-22799.00;;;12.28;55.68
5296;BME280;2670;42.720;23.336;2023-04-27T10:32:08;-22793.69;;;12.09;56.62
5296;BME280;2670;42.720;23.336;2023-04-27T10:34:37;-22786.16;;;11.83;56.54
5296;BME280;2670;42.720;23.336;2023-04-27T10:37:05;-22786.44;;;11.84;57.69
5296;BME280;2670;42.720;23.336;2023-04-27T10:39:34;-22789.56;;;11.95;57.32
5296;BME280;2670;42.720;23.336;2023-04-27T10:42:02;-22791.03;;;12.00;57.56
5296;BME280;2670;42.720;23.336;2023-04-27T10:44:30;-22793.84;;;12.10;58.13
5296;BME280;2670;42.720;23.336;2023-04-27T10:47:00;-22794.00;;;12.10;58.29
5296;BME280;2670;42.720;23.336;2023-04-27T10:49:28;-22790.44;;;11.98;57.35
5296;BME280;2670;42.720;23.336;2023-04-27T10:51:57;-22790.72;;;11.99;58.15
5296;BME280;2670;42.720;23.336;2023-04-27T10:54:26;-22791.19;;;12.01;58.18
5296;BME280;2670;42.720;23.336;2023-04-27T10:56:54;-22794.88;;;12.13;56.90
5296;BME280;2670;42.720;23.336;2023-04-27T10:59:20;-22795.91;;;12.17;56.40
5296;BME280;2670;42.720;23.336;2023-04-27T11:01:48;-22796.94;;;12.20;56.92
5296;BME280;2670;42.720;23.336;2023-04-27T11:04:16;-22794.88;;;12.13;57.89
5296;BME280;2670;42.720;23.336;2023-04-27T11:06:44;-22794.72;;;12.13;57.55
5296;BME280;2670;42.720;23.336;2023-04-27T11:09:12;-22792.81;;;12.06;57.16
5296;BME280;2670;42.720;23.336;2023-04-27T11:11:43;-22788.97;;;11.93;57.52
5296;BME280;2670;42.720;23.336;2023-04-27T11:14:13;-22791.47;;;12.02;56.99
5296;BME280;2670;42.720;23.336;2023-04-27T11:16:45;-22792.50;;;12.05;55.64
5296;BME280;2670;42.720;23.336;2023-04-27T11:19:12;-22792.97;;;12.07;56.14
5296;BME280;2670;42.720;23.336;2023-04-27T11:21:40;-22794.88;;;12.13;57.10
5296;BME280;2670;42.720;23.336;2023-04-27T11:24:07;-22796.66;;;12.19;56.88
5296;BME280;2670;42.720;23.336;2023-04-27T11:26:35;-22798.13;;;12.25;57.93
5296;BME280;2670;42.720;23.336;2023-04-27T11:29:03;-22798.44;;;12.26;57.19
5296;BME280;2670;42.720;23.336;2023-04-27T11:31:41;-22801.09;;;12.35;56.58
5296;BME280;2670;42.720;23.336;2023-04-27T11:34:15;-22800.50;;;12.33;57.80
5296;BME280;2670;42.720;23.336;2023-04-27T11:36:43;-22796.50;;;12.19;56.45
5296;BME280;2670;42.720;23.336;2023-04-27T11:39:15;-22803.16;;;12.42;57.30
5296;BME280;2670;42.720;23.336;2023-04-27T11:41:43;-22803.44;;;12.43;56.73
5296;BME280;2670;42.720;23.336;2023-04-27T11:44:11;-22802.56;;;12.40;56.46
5296;BME280;2670;42.720;23.336;2023-04-27T11:46:38;-22796.34;;;12.18;56.29
5296;BME280;2670;42.720;23.336;2023-04-27T11:49:06;-22801.69;;;12.37;55.46
5296;BME280;2670;42.720;23.336;2023-04-27T11:51:33;-22798.44;;;12.26;55.72
5296;BME280;2670;42.720;23.336;2023-04-27T11:54:02;-22800.19;;;12.32;56.13
5296;BME280;2670;42.720;23.336;2023-04-27T11:56:34;-22802.72;;;12.40;56.44
5296;BME280;2670;42.720;23.336;2023-04-27T11:59:02;-22801.69;;;12.37;56.14
5296;BME280;2670;42.720;23.336;2023-04-27T12:01:30;-22802.56;;;12.40;56.36
5296;BME280;2670;42.720;23.336;2023-04-27T12:03:57;-22806.41;;;12.53;56.61
5296;BME280;2670;42.720;23.336;2023-04-27T12:06:24;-22803.16;;;12.42;54.77
5296;BME280;2670;42.720;23.336;2023-04-27T12:08:51;-22800.34;;;12.32;56.32
5296;BME280;2670;42.720;23.336;2023-04-27T12:11:19;-22803.75;;;12.44;55.90
5296;BME280;2670;42.720;23.336;2023-04-27T12:13:46;-22806.25;;;12.53;55.60
5296;BME280;2670;42.720;23.336;2023-04-27T12:16:13;-22808.78;;;12.61;55.74
5296;BME280;2670;42.720;23.336;2023-04-27T12:18:39;-22811.00;;;12.69;55.92
5296;BME280;2670;42.720;23.336;2023-04-27T12:21:06;-22809.94;;;12.65;55.58
5296;BME280;2670;42.720;23.336;2023-04-27T12:23:34;-22813.34;;;12.77;55.47
5296;BME280;2670;42.720;23.336;2023-04-27T12:26:01;-22811.28;;;12.70;56.03
5296;BME280;2670;42.720;23.336;2023-04-27T12:28:29;-22809.81;;;12.65;55.16
5296;BME280;2670;42.720;23.336;2023-04-27T12:30:56;-22808.63;;;12.61;54.55
5296;BME280;2670;42.720;23.336;2023-04-27T12:33:23;-22805.53;;;12.50;55.26
5296;BME280;2670;42.720;23.336;2023-04-27T12:35:50;-22805.22;;;12.49;55.87
5296;BME280;2670;42.720;23.336;2023-04-27T12:38:17;-22811.00;;;12.69;56.01
5296;BME280;2670;42.720;23.336;2023-04-27T12:40:44;-22812.03;;;12.73;54.90
5296;BME280;2670;42.720;23.336;2023-04-27T12:43:11;-22810.84;;;12.68;55.76
5296;BME280;2670;42.720;23.336;2023-04-27T12:45:39;-22811.13;;;12.69;55.06
5296;BME280;2670;42.720;23.336;2023-04-27T12:48:06;-22813.94;;;12.79;55.28
5296;BME280;2670;42.720;23.336;2023-04-27T12:50:35;-22815.41;;;12.84;56.27
5296;BME280;2670;42.720;23.336;2023-04-27T12:53:03;-22817.34;;;12.91;55.76
5296;BME280;2670;42.720;23.336;2023-04-27T12:55:29;-22817.19;;;12.90;55.35
5296;BME280;2670;42.720;23.336;2023-04-27T12:57:56;-22819.41;;;12.98;54.82
5296;BME280;2670;42.720;23.336;2023-04-27T13:00:23;-22822.50;;;13.09;54.30
5296;BME280;2670;42.720;23.336;2023-04-27T13:02:52;-22819.69;;;12.99;54.38
5296;BME280;2670;42.720;23.336;2023-04-27T13:05:18;-22818.53;;;12.95;54.28
5296;BME280;2670;42.720;23.336;2023-04-27T13:07:46;-22821.19;;;13.04;54.71
5296;BME280;2670;42.720;23.336;2023-04-27T13:10:13;-22820.16;;;13.01;53.48
5296;BME280;2670;42.720;23.336;2023-04-27T13:12:40;-22816.75;;;12.89;55.12